sensor_id;sensor_type;location;lat;lon;timestamp;temperature;humidity
11818;DHT22;5966;52.402;5.322;2023-02-28T00:00:41;3.70;99.90
11818;DHT22;5966;52.402;5.322;2023-02-28T00:03:22;3.70;99.90
11818;DHT22;5966;52.402;5.322;2023-02-28T00:05:52;3.70;99.90
11818;DHT22;5966;52.402;5.322;2023-02-28T00:08:36;3.70;99.90
11818;DHT22;5966;52.402;5.322;2023-02-28T00:11:09;3.70;99.90
11818;DHT22;5966;52.402;5.322;2023-02-28T00:13:40;3.70;99.90
11818;DHT22;5966;52.402;5.322;2023-02-28T00:16:15;3.70;99.90
11818;DHT22;5966;52.402;5.322;2023-02-28T00:18:48;3.70;99.90
11818;DHT22;5966;52.402;5.322;2023-02-28T00:21:19;3.70;99.90
11818;DHT22;5966;52.402;5.322;2023-02-28T00:23:50;3.70;99.90
11818;DHT22;5966;52.402;5.322;2023-02-28T00:26:22;3.70;99.90
11818;DHT22;5966;52.402;5.322;2023-02-28T00:28:52;3.80;99.90
11818;DHT22;5966;52.402;5.322;2023-02-28T00:31:27;3.80;99.90
11818;DHT22;5966;52.402;5.322;2023-02-28T00:33:56;3.80;99.90
11818;DHT22;5966;52.402;5.322;2023-02-28T00:36:26;3.70;99.90
11818;DHT22;5966;52.402;5.322;2023-02-28T00:38:54;3.70;99.90
11818;DHT22;5966;52.402;5.322;2023-02-28T00:41:25;3.70;99.90
11818;DHT22;5966;52.402;5.322;2023-02-28T00:43:55;3.70;99.90
11818;DHT22;5966;52.402;5.322;2023-02-28T00:46:24;3.70;99.90
11818;DHT22;5966;52.402;5.322;2023-02-28T00:48:56;3.80;99.90
11818;DHT22;5966;52.402;5.322;2023-02-28T00:51:24;3.80;99.90
11818;DHT22;5966;52.402;5.322;2023-02-28T00:53:54;3.80;99.90
11818;DHT22;5966;52.402;5.322;2023-02-28T00:56:26;3.80;99.90
11818;DHT22;5966;52.402;5.322;2023-02-28T00:58:57;3.90;99.90
11818;DHT22;5966;52.402;5.322;2023-02-28T01:01:25;3.80;99.90
11818;DHT22;5966;52.402;5.322;2023-02-28T01:03:58;3.80;99.90
11818;DHT22;5966;52.402;5.322;2023-02-28T01:06:26;3.80;99.90
11818;DHT22;5966;52.402;5.322;2023-02-28T01:08:57;3.80;99.90
11818;DHT22;5966;52.402;5.322;2023-02-28T01:11:30;3.90;99.90
11818;DHT22;5966;52.402;5.322;2023-02-28T01:14:02;3.90;99.90
11818;DHT22;5966;52.402;5.322;2023-02-28T01:16:32;3.90;99.90
11818;DHT22;5966;52.402;5.322;2023-02-28T01:19:01;3.90;99.90
11818;DHT22;5966;52.402;5.322;2023-02-28T01:21:31;3.90;99.90
11818;DHT22;5966;52.402;5.322;2023-02-28T01:24:00;4.00;99.90
11818;DHT22;5966;52.402;5.322;2023-02-28T01:26:36;4.00;99.90
11818;DHT22;5966;52.402;5.322;2023-02-28T01:29:06;4.00;99.90
11818;DHT22;5966;52.402;5.322;2023-02-28T01:31:34;4.10;99.90
11818;DHT22;5966;52.402;5.322;2023-02-28T01:34:03;4.10;99.90
11818;DHT22;5966;52.402;5.322;2023-02-28T01:36:34;4.20;99.90
11818;DHT22;5966;52.402;5.322;2023-02-28T01:39:03;4.20;99.90
11818;DHT22;5966;52.402;5.322;2023-02-28T01:41:47;4.20;99.90
11818;DHT22;5966;52.402;5.322;2023-02-28T01:47:23;4.20;99.90
11818;DHT22;5966;52.402;5.322;2023-02-28T01:49:54;4.20;99.90
11818;DHT22;5966;52.402;5.322;2023-02-28T01:52:23;4.20;99.90
11818;DHT22;5966;52.402;5.322;2023-02-28T01:54:55;4.20;99.90
11818;DHT22;5966;52.402;5.322;2023-02-28T01:57:34;4.20;99.90
11818;DHT22;5966;52.402;5.322;2023-02-28T02:00:08;4.20;99.90
11818;DHT22;5966;52.402;5.322;2023-02-28T02:02:37;4.20;99.90
11818;DHT22;5966;52.402;5.322;2023-02-28T02:05:07;4.20;99.90
11818;DHT22;5966;52.402;5.322;2023-02-28T02:07:40;4.20;99.90
11818;DHT22;5966;52.402;5.322;2023-02-28T02:10:14;4.30;99.90
11818;DHT22;5966;52.402;5.322;2023-02-28T02:13:13;4.40;99.90
11818;DHT22;5966;52.402;5.322;2023-02-28T02:16:13;4.40;99.90
11818;DHT22;5966;52.402;5.322;2023-02-28T02:18:50;4.40;99.90
11818;DHT22;5966;52.402;5.322;2023-02-28T02:21:46;4.40;99.90
11818;DHT22;5966;52.402;5.322;2023-02-28T02:36:50;4.40;99.90
11818;DHT22;5966;52.402;5.322;2023-02-28T02:39:27;4.40;99.90
11818;DHT22;5966;52.402;5.322;2023-02-28T02:42:11;4.40;99.90
11818;DHT22;5966;52.402;5.322;2023-02-28T02:44:50;4.40;99.90
11818;DHT22;5966;52.402;5.322;2023-02-28T02:47:23;4.40;99.90
11818;DHT22;5966;52.402;5.322;2023-02-28T02:49:57;4.40;99.90
11818;DHT22;5966;52.402;5.322;2023-02-28T02:52:34;4.40;99.90
11818;DHT22;5966;52.402;5.322;2023-02-28T02:55:05;4.40;99.90
11818;DHT22;5966;52.402;5.322;2023-02-28T02:57:38;4.40;99.90
11818;DHT22;5966;52.402;5.322;2023-02-28T03:00:09;4.40;99.90
11818;DHT22;5966;52.402;5.322;2023-02-28T03:02:40;4.40;99.90
11818;DHT22;5966;52.402;5.322;2023-02-28T03:05:14;4.40;99.90
11818;DHT22;5966;52.402;5.322;2023-02-28T03:07:47;4.30;99.90
11818;DHT22;5966;52.402;5.322;2023-02-28T03:10:32;4.30;99.90
11818;DHT22;5966;52.402;5.322;2023-02-28T03:13:15;4.30;99.90
11818;DHT22;5966;52.402;5.322;2023-02-28T03:18:50;4.30;99.90
11818;DHT22;5966;52.402;5.322;2023-02-28T03:21:27;4.30;99.90
11818;DHT22;5966;52.402;5.322;2023-02-28T03:24:03;4.20;99.90
11818;DHT22;5966;52.402;5.322;2023-02-28T03:26:36;4.30;99.90
11818;DHT22;5966;52.402;5.322;2023-02-28T03:29:13;4.30;99.90
11818;DHT22;5966;52.402;5.322;2023-02-28T03:31:48;4.30;99.90
11818;DHT22;5966;52.402;5.322;2023-02-28T03:34:20;4.30;99.90
11818;DHT22;5966;52.402;5.322;2023-02-28T03:36:53;4.30;99.90
11818;DHT22;5966;52.402;5.322;2023-02-28T03:39:30;4.30;99.90
11818;DHT22;5966;52.402;5.322;2023-02-28T03:42:05;4.30;99.90
11818;DHT22;5966;52.402;5.322;2023-02-28T03:44:38;4.30;99.90
11818;DHT22;5966;52.402;5.322;2023-02-28T03:47:09;4.20;99.90
11818;DHT22;5966;52.402;5.322;2023-02-28T03:49:42;4.10;99.90
11818;DHT22;5966;52.402;5.322;2023-02-28T03:52:11;4.00;99.90
11818;DHT22;5966;52.402;5.322;2023-02-28T03:54:45;3.90;99.90
11818;DHT22;5966;52.402;5.322;2023-02-28T03:57:22;4.00;99.90
11818;DHT22;5966;52.402;5.322;2023-02-28T03:59:56;3.90;99.90
11818;DHT22;5966;52.402;5.322;2023-02-28T04:02:24;3.90;99.90
11818;DHT22;5966;52.402;5.322;2023-02-28T04:04:53;4.00;99.90
11818;DHT22;5966;52.402;5.322;2023-02-28T04:07:21;4.00;99.90
11818;DHT22;5966;52.402;5.322;2023-02-28T04:09:53;4.00;99.90
11818;DHT22;5966;52.402;5.322;2023-02-28T04:12:22;4.00;99.90
11818;DHT22;5966;52.402;5.322;2023-02-28T04:14:50;4.00;99.90
11818;DHT22;5966;52.402;5.322;2023-02-28T04:17:18;4.00;99.90
11818;DHT22;5966;52.402;5.322;2023-02-28T04:19:46;4.10;99.90
11818;DHT22;5966;52.402;5.322;2023-02-28T04:22:16;4.00;99.90
11818;DHT22;5966;52.402;5.322;2023-02-28T04:24:46;4.10;99.90
11818;DHT22;5966;52.402;5.322;2023-02-28T04:27:30;4.00;99.90
11818;DHT22;5966;52.402;5.322;2023-02-28T04:30:02;4.00;99.90
11818;DHT22;5966;52.402;5.322;2023-02-28T04:32:32;4.00;99.90
11818;DHT22;5966;52.402;5.322;2023-02-28T04:35:06;4.00;99.90
11818;DHT22;5966;52.402;5.322;2023-02-28T04:37:39;4.10;99.90
11818;DHT22;5966;52.402;5.322;2023-02-28T04:40:11;4.00;99.90
11818;DHT22;5966;52.402;5.322;2023-02-28T04:42:41;4.00;99.90
11818;DHT22;5966;52.402;5.322;2023-02-28T04:45:09;4.00;99.90
11818;DHT22;5966;52.402;5.322;2023-02-28T04:47:47;3.90;99.90
11818;DHT22;5966;52.402;5.322;2023-02-28T04:50:15;3.90;99.90
11818;DHT22;5966;52.402;5.322;2023-02-28T04:52:44;3.90;99.90
11818;DHT22;5966;52.402;5.322;2023-02-28T04:55:13;3.90;99.90
11818;DHT22;5966;52.402;5.322;2023-02-28T04:57:42;3.90;99.90
11818;DHT22;5966;52.402;5.322;2023-02-28T05:00:11;3.90;99.90
11818;DHT22;5966;52.402;5.322;2023-02-28T05:02:43;3.90;99.90
11818;DHT22;5966;52.402;5.322;2023-02-28T05:05:11;3.90;99.90
11818;DHT22;5966;52.402;5.322;2023-02-28T05:07:44;3.80;99.90
11818;DHT22;5966;52.402;5.322;2023-02-28T05:10:13;3.80;99.90
11818;DHT22;5966;52.402;5.322;2023-02-28T05:12:42;3.80;99.90
11818;DHT22;5966;52.402;5.322;2023-02-28T05:15:12;3.80;99.90
11818;DHT22;5966;52.402;5.322;2023-02-28T05:17:41;3.80;99.90
11818;DHT22;5966;52.402;5.322;2023-02-28T05:20:10;3.70;99.90
11818;DHT22;5966;52.402;5.322;2023-02-28T05:22:42;3.70;99.90
11818;DHT22;5966;52.402;5.322;2023-02-28T05:25:12;3.70;99.90
11818;DHT22;5966;52.402;5.322;2023-02-28T05:27:46;3.60;99.90
11818;DHT22;5966;52.402;5.322;2023-02-28T05:30:16;3.60;99.90
11818;DHT22;5966;52.402;5.322;2023-02-28T05:32:50;3.60;99.90
11818;DHT22;5966;52.402;5.322;2023-02-28T05:35:19;3.50;99.90
11818;DHT22;5966;52.402;5.322;2023-02-28T05:37:47;3.50;99.90
11818;DHT22;5966;52.402;5.322;2023-02-28T05:40:16;3.50;99.90
11818;DHT22;5966;52.402;5.322;2023-02-28T05:42:45;3.50;99.90
11818;DHT22;5966;52.402;5.322;2023-02-28T05:45:14;3.50;99.90
11818;DHT22;5966;52.402;5.322;2023-02-28T05:47:42;3.50;99.90
11818;DHT22;5966;52.402;5.322;2023-02-28T05:50:15;3.50;99.90
11818;DHT22;5966;52.402;5.322;2023-02-28T05:52:49;3.50;99.90
11818;DHT22;5966;52.402;5.322;2023-02-28T05:55:18;3.50;99.90
11818;DHT22;5966;52.402;5.322;2023-02-28T05:57:49;3.50;99.90
11818;DHT22;5966;52.402;5.322;2023-02-28T06:00:17;3.30;99.90
11818;DHT22;5966;52.402;5.322;2023-02-28T06:02:45;3.20;99.90
11818;DHT22;5966;52.402;5.322;2023-02-28T06:05:16;3.10;99.90
11818;DHT22;5966;52.402;5.322;2023-02-28T06:07:45;3.00;99.90
11818;DHT22;5966;52.402;5.322;2023-02-28T06:10:17;3.00;99.90
11818;DHT22;5966;52.402;5.322;2023-02-28T06:12:50;3.00;99.90
11818;DHT22;5966;52.402;5.322;2023-02-28T06:15:18;3.00;99.90
11818;DHT22;5966;52.402;5.322;2023-02-28T06:17:47;3.00;99.90
11818;DHT22;5966;52.402;5.322;2023-02-28T06:20:16;3.00;99.90
11818;DHT22;5966;52.402;5.322;2023-02-28T06:22:44;2.90;99.90
11818;DHT22;5966;52.402;5.322;2023-02-28T06:25:12;2.90;99.90
11818;DHT22;5966;52.402;5.322;2023-02-28T06:27:42;2.90;99.90
11818;DHT22;5966;52.402;5.322;2023-02-28T06:30:12;2.90;99.90
11818;DHT22;5966;52.402;5.322;2023-02-28T06:32:40;2.90;99.90
11818;DHT22;5966;52.402;5.322;2023-02-28T06:35:08;2.90;99.90
11818;DHT22;5966;52.402;5.322;2023-02-28T06:37:37;2.90;99.90
11818;DHT22;5966;52.402;5.322;2023-02-28T06:40:10;2.80;99.90
11818;DHT22;5966;52.402;5.322;2023-02-28T06:42:39;2.80;99.90
11818;DHT22;5966;52.402;5.322;2023-02-28T06:45:08;2.70;99.90
11818;DHT22;5966;52.402;5.322;2023-02-28T06:47:40;2.70;99.90
11818;DHT22;5966;52.402;5.322;2023-02-28T06:50:12;2.70;99.90
11818;DHT22;5966;52.402;5.322;2023-02-28T06:52:41;2.70;99.90
11818;DHT22;5966;52.402;5.322;2023-02-28T06:55:09;2.60;99.90
11818;DHT22;5966;52.402;5.322;2023-02-28T06:57:37;2.60;99.90
11818;DHT22;5966;52.402;5.322;2023-02-28T07:00:09;2.50;99.90
11818;DHT22;5966;52.402;5.322;2023-02-28T07:02:40;2.50;99.90
11818;DHT22;5966;52.402;5.322;2023-02-28T07:05:09;2.50;99.90
11818;DHT22;5966;52.402;5.322;2023-02-28T07:07:37;2.50;99.90
11818;DHT22;5966;52.402;5.322;2023-02-28T07:10:11;2.50;99.90
11818;DHT22;5966;52.402;5.322;2023-02-28T07:12:46;2.50;99.90
11818;DHT22;5966;52.402;5.322;2023-02-28T07:15:14;2.40;99.90
11818;DHT22;5966;52.402;5.322;2023-02-28T07:17:46;2.40;99.90
11818;DHT22;5966;52.402;5.322;2023-02-28T07:20:17;2.40;99.90
11818;DHT22;5966;52.402;5.322;2023-02-28T07:22:45;2.40;99.90
11818;DHT22;5966;52.402;5.322;2023-02-28T07:25:23;2.40;99.90
11818;DHT22;5966;52.402;5.322;2023-02-28T07:27:53;2.40;99.90
11818;DHT22;5966;52.402;5.322;2023-02-28T07:30:22;2.40;99.90
11818;DHT22;5966;52.402;5.322;2023-02-28T07:32:52;2.40;99.90
11818;DHT22;5966;52.402;5.322;2023-02-28T07:35:22;2.40;99.90
11818;DHT22;5966;52.402;5.322;2023-02-28T07:37:51;2.50;99.90
11818;DHT22;5966;52.402;5.322;2023-02-28T07:40:25;2.50;99.90
11818;DHT22;5966;52.402;5.322;2023-02-28T07:42:59;2.50;99.90
11818;DHT22;5966;52.402;5.322;2023-02-28T07:45:28;2.50;99.90
11818;DHT22;5966;52.402;5.322;2023-02-28T07:47:59;2.50;99.90
11818;DHT22;5966;52.402;5.322;2023-02-28T07:50:30;2.50;99.90
11818;DHT22;5966;52.402;5.322;2023-02-28T07:52:59;2.60;99.90
11818;DHT22;5966;52.402;5.322;2023-02-28T07:55:27;2.60;99.90
11818;DHT22;5966;52.402;5.322;2023-02-28T07:57:57;2.60;99.90
11818;DHT22;5966;52.402;5.322;2023-02-28T08:00:27;2.70;99.90
11818;DHT22;5966;52.402;5.322;2023-02-28T08:02:56;2.70;99.90
11818;DHT22;5966;52.402;5.322;2023-02-28T08:05:27;2.70;99.90
11818;DHT22;5966;52.402;5.322;2023-02-28T08:07:59;2.70;99.90
11818;DHT22;5966;52.402;5.322;2023-02-28T08:10:28;2.70;99.90
11818;DHT22;5966;52.402;5.322;2023-02-28T08:12:57;2.80;99.90
11818;DHT22;5966;52.402;5.322;2023-02-28T08:15:25;2.80;99.90
11818;DHT22;5966;52.402;5.322;2023-02-28T08:17:54;2.70;99.90
11818;DHT22;5966;52.402;5.322;2023-02-28T08:20:23;2.60;99.90
11818;DHT22;5966;52.402;5.322;2023-02-28T08:22:59;2.60;99.90
11818;DHT22;5966;52.402;5.322;2023-02-28T08:25:28;2.70;99.90
11818;DHT22;5966;52.402;5.322;2023-02-28T08:27:57;2.70;99.90
11818;DHT22;5966;52.402;5.322;2023-02-28T08:30:27;2.80;99.90
11818;DHT22;5966;52.402;5.322;2023-02-28T08:33:03;2.80;99.90
11818;DHT22;5966;52.402;5.322;2023-02-28T08:35:39;2.70;99.90
11818;DHT22;5966;52.402;5.322;2023-02-28T08:38:10;2.70;99.90
11818;DHT22;5966;52.402;5.322;2023-02-28T08:40:40;2.60;99.90
11818;DHT22;5966;52.402;5.322;2023-02-28T08:43:11;2.70;99.90
11818;DHT22;5966;52.402;5.322;2023-02-28T08:45:51;2.70;99.90
11818;DHT22;5966;52.402;5.322;2023-02-28T08:48:23;2.70;99.90
11818;DHT22;5966;52.402;5.322;2023-02-28T08:50:56;2.70;99.90
11818;DHT22;5966;52.402;5.322;2023-02-28T08:53:37;2.70;99.90
11818;DHT22;5966;52.402;5.322;2023-02-28T08:56:14;2.70;99.90
11818;DHT22;5966;52.402;5.322;2023-02-28T08:58:44;2.70;99.90
11818;DHT22;5966;52.402;5.322;2023-02-28T09:01:17;2.70;99.90
11818;DHT22;5966;52.402;5.322;2023-02-28T09:03:48;2.70;99.90
11818;DHT22;5966;52.402;5.322;2023-02-28T09:06:22;2.80;99.90
11818;DHT22;5966;52.402;5.322;2023-02-28T09:08:57;2.80;99.90
11818;DHT22;5966;52.402;5.322;2023-02-28T09:11:28;2.70;99.90
11818;DHT22;5966;52.402;5.322;2023-02-28T09:13:58;2.70;99.90
11818;DHT22;5966;52.402;5.322;2023-02-28T09:16:32;2.80;99.90
11818;DHT22;5966;52.402;5.322;2023-02-28T09:19:01;2.80;99.90
11818;DHT22;5966;52.402;5.322;2023-02-28T09:21:35;2.90;99.90
11818;DHT22;5966;52.402;5.322;2023-02-28T09:24:08;2.90;99.90
11818;DHT22;5966;52.402;5.322;2023-02-28T09:26:38;3.00;99.90
11818;DHT22;5966;52.402;5.322;2023-02-28T09:29:29;3.10;99.90
11818;DHT22;5966;52.402;5.322;2023-02-28T09:31:58;3.10;99.90
11818;DHT22;5966;52.402;5.322;2023-02-28T09:34:30;3.10;99.90
11818;DHT22;5966;52.402;5.322;2023-02-28T09:37:04;3.10;99.90
11818;DHT22;5966;52.402;5.322;2023-02-28T09:39:34;3.10;99.90
11818;DHT22;5966;52.402;5.322;2023-02-28T09:42:03;3.10;99.90
11818;DHT22;5966;52.402;5.322;2023-02-28T09:44:40;3.20;99.90
11818;DHT22;5966;52.402;5.322;2023-02-28T09:47:14;3.20;99.90
11818;DHT22;5966;52.402;5.322;2023-02-28T09:49:47;3.20;99.90
11818;DHT22;5966;52.402;5.322;2023-02-28T09:52:17;3.20;99.90
11818;DHT22;5966;52.402;5.322;2023-02-28T09:54:52;3.20;99.90
11818;DHT22;5966;52.402;5.322;2023-02-28T09:57:32;3.30;99.90
11818;DHT22;5966;52.402;5.322;2023-02-28T10:00:13;3.30;99.90
11818;DHT22;5966;52.402;5.322;2023-02-28T10:03:18;3.30;99.90
11818;DHT22;5966;52.402;5.322;2023-02-28T10:05:58;3.30;99.90
11818;DHT22;5966;52.402;5.322;2023-02-28T10:08:34;3.40;99.90
11818;DHT22;5966;52.402;5.322;2023-02-28T10:11:11;3.60;99.90
11818;DHT22;5966;52.402;5.322;2023-02-28T10:13:48;3.70;99.90
11818;DHT22;5966;52.402;5.322;2023-02-28T10:16:23;3.80;99.90
11818;DHT22;5966;52.402;5.322;2023-02-28T10:18:57;3.80;99.90
11818;DHT22;5966;52.402;5.322;2023-02-28T10:21:35;3.70;99.90
11818;DHT22;5966;52.402;5.322;2023-02-28T10:24:21;3.60;99.90
11818;DHT22;5966;52.402;5.322;2023-02-28T10:26:53;3.60;99.90
11818;DHT22;5966;52.402;5.322;2023-02-28T10:29:27;3.70;99.90
11818;DHT22;5966;52.402;5.322;2023-02-28T10:32:01;3.80;99.90
11818;DHT22;5966;52.402;5.322;2023-02-28T10:34:32;3.80;99.90
11818;DHT22;5966;52.402;5.322;2023-02-28T10:37:01;3.80;99.90
11818;DHT22;5966;52.402;5.322;2023-02-28T10:39:38;3.80;99.90
11818;DHT22;5966;52.402;5.322;2023-02-28T10:42:23;3.90;99.90
11818;DHT22;5966;52.402;5.322;2023-02-28T10:45:09;4.00;99.90
11818;DHT22;5966;52.402;5.322;2023-02-28T10:47:49;4.10;99.90
11818;DHT22;5966;52.402;5.322;2023-02-28T10:50:39;4.20;99.90
11818;DHT22;5966;52.402;5.322;2023-02-28T10:53:34;4.20;99.90
11818;DHT22;5966;52.402;5.322;2023-02-28T10:56:32;4.20;99.90
11818;DHT22;5966;52.402;5.322;2023-02-28T10:59:05;4.20;99.90
11818;DHT22;5966;52.402;5.322;2023-02-28T11:01:51;4.30;99.90
11818;DHT22;5966;52.402;5.322;2023-02-28T11:04:33;4.30;99.90
11818;DHT22;5966;52.402;5.322;2023-02-28T11:07:18;4.50;99.90
11818;DHT22;5966;52.402;5.322;2023-02-28T11:09:57;4.50;99.90
11818;DHT22;5966;52.402;5.322;2023-02-28T11:12:33;4.60;99.90
11818;DHT22;5966;52.402;5.322;2023-02-28T11:15:23;4.60;99.90
11818;DHT22;5966;52.402;5.322;2023-02-28T11:17:54;4.70;99.90
11818;DHT22;5966;52.402;5.322;2023-02-28T11:20:28;4.60;99.90
11818;DHT22;5966;52.402;5.322;2023-02-28T11:23:00;4.60;99.90
11818;DHT22;5966;52.402;5.322;2023-02-28T11:25:31;4.60;99.90
11818;DHT22;5966;52.402;5.322;2023-02-28T11:28:02;4.60;99.90
11818;DHT22;5966;52.402;5.322;2023-02-28T11:30:42;4.60;99.90
11818;DHT22;5966;52.402;5.322;2023-02-28T11:33:28;4.60;99.90
11818;DHT22;5966;52.402;5.322;2023-02-28T11:36:01;4.70;99.90
11818;DHT22;5966;52.402;5.322;2023-02-28T11:38:34;4.70;99.90
11818;DHT22;5966;52.402;5.322;2023-02-28T11:41:16;4.80;99.90
11818;DHT22;5966;52.402;5.322;2023-02-28T11:44:01;4.70;99.90
11818;DHT22;5966;52.402;5.322;2023-02-28T11:46:43;4.70;99.90
11818;DHT22;5966;52.402;5.322;2023-02-28T11:49:30;4.70;99.90
11818;DHT22;5966;52.402;5.322;2023-02-28T11:52:06;4.70;99.90
11818;DHT22;5966;52.402;5.322;2023-02-28T11:54:55;4.70;99.90
11818;DHT22;5966;52.402;5.322;2023-02-28T11:57:35;4.80;99.90
11818;DHT22;5966;52.402;5.322;2023-02-28T12:00:19;4.90;99.90
11818;DHT22;5966;52.402;5.322;2023-02-28T12:03:01;5.00;99.90
11818;DHT22;5966;52.402;5.322;2023-02-28T12:05:36;5.00;99.90
11818;DHT22;5966;52.402;5.322;2023-02-28T12:08:18;5.10;99.90
11818;DHT22;5966;52.402;5.322;2023-02-28T12:10:58;5.10;99.90
11818;DHT22;5966;52.402;5.322;2023-02-28T12:13:41;5.10;99.90
11818;DHT22;5966;52.402;5.322;2023-02-28T12:16:45;5.20;99.90
11818;DHT22;5966;52.402;5.322;2023-02-28T12:19:26;5.20;99.90
11818;DHT22;5966;52.402;5.322;2023-02-28T12:22:12;5.20;99.90
11818;DHT22;5966;52.402;5.322;2023-02-28T12:28:06;5.30;99.90
11818;DHT22;5966;52.402;5.322;2023-02-28T12:30:56;5.40;99.90
11818;DHT22;5966;52.402;5.322;2023-02-28T12:33:35;5.50;99.90
11818;DHT22;5966;52.402;5.322;2023-02-28T12:36:14;5.50;99.90
11818;DHT22;5966;52.402;5.322;2023-02-28T12:39:03;5.50;99.90
11818;DHT22;5966;52.402;5.322;2023-02-28T12:41:39;5.50;99.90
11818;DHT22;5966;52.402;5.322;2023-02-28T12:44:19;5.50;99.90
11818;DHT22;5966;52.402;5.322;2023-02-28T12:46:56;5.50;99.90
11818;DHT22;5966;52.402;5.322;2023-02-28T12:49:56;5.60;99.90
11818;DHT22;5966;52.402;5.322;2023-02-28T12:52:41;5.60;99.90
11818;DHT22;5966;52.402;5.322;2023-02-28T12:55:17;5.60;99.90
11818;DHT22;5966;52.402;5.322;2023-02-28T12:57:52;5.60;99.90
11818;DHT22;5966;52.402;5.322;2023-02-28T13:00:28;5.70;99.90
11818;DHT22;5966;52.402;5.322;2023-02-28T13:06:23;5.70;99.90
11818;DHT22;5966;52.402;5.322;2023-02-28T13:09:17;5.70;99.90
11818;DHT22;5966;52.402;5.322;2023-02-28T13:11:51;5.80;99.90
11818;DHT22;5966;52.402;5.322;2023-02-28T13:14:29;5.90;99.90
11818;DHT22;5966;52.402;5.322;2023-02-28T13:17:09;5.90;99.90
11818;DHT22;5966;52.402;5.322;2023-02-28T13:19:42;5.90;99.90
11818;DHT22;5966;52.402;5.322;2023-02-28T13:22:20;5.90;99.90
11818;DHT22;5966;52.402;5.322;2023-02-28T13:24:53;5.90;99.90
11818;DHT22;5966;52.402;5.322;2023-02-28T13:27:35;5.90;99.90
11818;DHT22;5966;52.402;5.322;2023-02-28T13:33:26;5.90;99.90
11818;DHT22;5966;52.402;5.322;2023-02-28T13:36:25;6.00;99.90
11818;DHT22;5966;52.402;5.322;2023-02-28T13:38:56;5.90;99.90
11818;DHT22;5966;52.402;5.322;2023-02-28T13:41:46;6.00;99.90
11818;DHT22;5966;52.402;5.322;2023-02-28T13:44:19;6.10;99.90
11818;DHT22;5966;52.402;5.322;2023-02-28T13:47:20;6.10;99.90
11818;DHT22;5966;52.402;5.322;2023-02-28T13:49:50;6.20;99.90
11818;DHT22;5966;52.402;5.322;2023-02-28T13:52:21;6.10;99.90
11818;DHT22;5966;52.402;5.322;2023-02-28T13:55:09;5.90;99.90
11818;DHT22;5966;52.402;5.322;2023-02-28T13:57:58;5.80;99.90
11818;DHT22;5966;52.402;5.322;2023-02-28T14:00:46;5.70;99.90
11818;DHT22;5966;52.402;5.322;2023-02-28T14:03:39;5.70;99.90
11818;DHT22;5966;52.402;5.322;2023-02-28T14:06:18;5.70;99.90
11818;DHT22;5966;52.402;5.322;2023-02-28T14:08:55;5.80;99.90
11818;DHT22;5966;52.402;5.322;2023-02-28T14:11:30;6.00;99.90
11818;DHT22;5966;52.402;5.322;2023-02-28T14:14:02;5.80;99.90
11818;DHT22;5966;52.402;5.322;2023-02-28T14:16:40;5.70;99.90
11818;DHT22;5966;52.402;5.322;2023-02-28T14:19:14;5.70;99.90
11818;DHT22;5966;52.402;5.322;2023-02-28T14:21:52;5.70;99.90
11818;DHT22;5966;52.402;5.322;2023-02-28T14:25:08;5.80;99.90
11818;DHT22;5966;52.402;5.322;2023-02-28T14:27:50;6.00;99.90
11818;DHT22;5966;52.402;5.322;2023-02-28T14:30:43;6.10;99.90
11818;DHT22;5966;52.402;5.322;2023-02-28T14:33:22;6.00;99.90
11818;DHT22;5966;52.402;5.322;2023-02-28T14:36:06;6.10;99.90
11818;DHT22;5966;52.402;5.322;2023-02-28T14:38:39;6.20;99.90
11818;DHT22;5966;52.402;5.322;2023-02-28T14:41:16;6.30;99.90
11818;DHT22;5966;52.402;5.322;2023-02-28T14:43:54;6.40;99.90
11818;DHT22;5966;52.402;5.322;2023-02-28T14:46:26;6.40;99.90
11818;DHT22;5966;52.402;5.322;2023-02-28T14:48:56;6.50;99.90
11818;DHT22;5966;52.402;5.322;2023-02-28T14:51:24;6.50;99.90
11818;DHT22;5966;52.402;5.322;2023-02-28T14:53:57;6.50;99.90
11818;DHT22;5966;52.402;5.322;2023-02-28T14:56:29;6.50;99.90
11818;DHT22;5966;52.402;5.322;2023-02-28T14:58:58;6.50;99.90
11818;DHT22;5966;52.402;5.322;2023-02-28T15:01:27;6.50;99.90
11818;DHT22;5966;52.402;5.322;2023-02-28T15:04:01;6.50;99.90
11818;DHT22;5966;52.402;5.322;2023-02-28T15:06:40;6.50;99.90
11818;DHT22;5966;52.402;5.322;2023-02-28T15:09:29;6.60;99.90
11818;DHT22;5966;52.402;5.322;2023-02-28T15:11:59;6.70;99.90
11818;DHT22;5966;52.402;5.322;2023-02-28T15:14:28;6.70;99.90
11818;DHT22;5966;52.402;5.322;2023-02-28T15:17:05;6.60;99.90
11818;DHT22;5966;52.402;5.322;2023-02-28T15:19:48;6.60;99.90
11818;DHT22;5966;52.402;5.322;2023-02-28T15:22:27;6.60;99.90
11818;DHT22;5966;52.402;5.322;2023-02-28T15:24:57;6.60;99.90
11818;DHT22;5966;52.402;5.322;2023-02-28T15:27:29;6.60;99.90
11818;DHT22;5966;52.402;5.322;2023-02-28T15:30:05;6.60;99.90
11818;DHT22;5966;52.402;5.322;2023-02-28T15:32:38;6.60;99.90
11818;DHT22;5966;52.402;5.322;2023-02-28T15:35:20;6.60;99.90
11818;DHT22;5966;52.402;5.322;2023-02-28T15:37:56;6.50;99.90
11818;DHT22;5966;52.402;5.322;2023-02-28T15:40:28;6.50;99.90
11818;DHT22;5966;52.402;5.322;2023-02-28T15:42:59;6.40;99.90
11818;DHT22;5966;52.402;5.322;2023-02-28T15:45:35;6.40;99.90
11818;DHT22;5966;52.402;5.322;2023-02-28T15:48:17;6.40;99.90
11818;DHT22;5966;52.402;5.322;2023-02-28T15:50:51;6.40;99.90
11818;DHT22;5966;52.402;5.322;2023-02-28T15:53:25;6.30;99.90
11818;DHT22;5966;52.402;5.322;2023-02-28T15:56:01;6.20;99.90
11818;DHT22;5966;52.402;5.322;2023-02-28T15:58:37;5.90;99.90
11818;DHT22;5966;52.402;5.322;2023-02-28T16:01:19;5.80;99.90
11818;DHT22;5966;52.402;5.322;2023-02-28T16:03:58;5.60;99.90
11818;DHT22;5966;52.402;5.322;2023-02-28T16:06:39;5.50;99.90
11818;DHT22;5966;52.402;5.322;2023-02-28T16:09:15;5.50;99.90
11818;DHT22;5966;52.402;5.322;2023-02-28T16:11:53;5.40;99.90
11818;DHT22;5966;52.402;5.322;2023-02-28T16:14:29;5.40;99.90
11818;DHT22;5966;52.402;5.322;2023-02-28T16:17:07;5.40;99.90
11818;DHT22;5966;52.402;5.322;2023-02-28T16:19:49;5.40;99.90
11818;DHT22;5966;52.402;5.322;2023-02-28T16:22:20;5.40;99.90
11818;DHT22;5966;52.402;5.322;2023-02-28T16:24:50;5.40;99.90
11818;DHT22;5966;52.402;5.322;2023-02-28T16:27:27;5.40;99.90
11818;DHT22;5966;52.402;5.322;2023-02-28T16:30:21;5.30;99.90
11818;DHT22;5966;52.402;5.322;2023-02-28T16:32:55;5.30;99.90
11818;DHT22;5966;52.402;5.322;2023-02-28T16:35:33;5.30;99.90
11818;DHT22;5966;52.402;5.322;2023-02-28T16:38:08;5.30;99.90
11818;DHT22;5966;52.402;5.322;2023-02-28T16:40:45;5.20;99.90
11818;DHT22;5966;52.402;5.322;2023-02-28T16:43:25;5.20;99.90
11818;DHT22;5966;52.402;5.322;2023-02-28T16:45:56;5.10;99.90
11818;DHT22;5966;52.402;5.322;2023-02-28T16:48:34;5.10;99.90
11818;DHT22;5966;52.402;5.322;2023-02-28T16:51:11;5.00;99.90
11818;DHT22;5966;52.402;5.322;2023-02-28T16:53:44;5.00;99.90
11818;DHT22;5966;52.402;5.322;2023-02-28T16:56:18;4.90;99.90
11818;DHT22;5966;52.402;5.322;2023-02-28T16:58:52;4.90;99.90
11818;DHT22;5966;52.402;5.322;2023-02-28T17:01:23;4.80;99.90
11818;DHT22;5966;52.402;5.322;2023-02-28T17:03:56;4.80;99.90
11818;DHT22;5966;52.402;5.322;2023-02-28T17:06:28;4.70;99.90
11818;DHT22;5966;52.402;5.322;2023-02-28T17:08:58;4.60;99.90
11818;DHT22;5966;52.402;5.322;2023-02-28T17:11:30;4.60;99.90
11818;DHT22;5966;52.402;5.322;2023-02-28T17:14:04;4.50;99.90
11818;DHT22;5966;52.402;5.322;2023-02-28T17:16:36;4.40;99.90
11818;DHT22;5966;52.402;5.322;2023-02-28T17:19:12;4.50;99.90